Time;durP1;ratioP1;P1;durP2;ratioP2;P2;SDS_P1;SDS_P2;PMS_P1;PMS_P2;Temp;Humidity;BMP_temperature;BMP_pressure;BME280_temperature;BME280_humidity;BME280_pressure;Samples;Min_cycle;Max_cycle;Signal;HPM_P1;HPM_P2
2023/06/25 00:00:58;;;;;;;7.50;4.03;;;;;;;;;;5030894;28;20047;-70
2023/06/25 00:03:23;;;;;;;8.80;3.97;;;;;;;;;;5030022;28;20101;-69
2023/06/25 00:05:48;;;;;;;5.93;3.45;;;;;;;;;;5026794;28;20129;-70
2023/06/25 00:08:13;;;;;;;6.20;4.00;;;;;;;;;;5029027;28;20550;-69
2023/06/25 00:10:39;;;;;;;8.80;4.30;;;;;;;;;;5028866;28;20854;-70
2023/06/25 00:13:04;;;;;;;7.40;4.03;;;;;;;;;;5012027;28;20371;-70
2023/06/25 00:15:29;;;;;;;17.43;4.60;;;;;;;;;;5010722;28;20420;-70
2023/06/25 00:17:55;;;;;;;7.93;4.27;;;;;;;;;;4994370;28;20288;-70
2023/06/25 00:20:20;;;;;;;8.45;4.50;;;;;;;;;;5011634;28;20304;-70
2023/06/25 00:22:45;;;;;;;5.40;3.87;;;;;;;;;;5027853;28;20025;-70
2023/06/25 00:25:14;;;;;;;7.65;4.53;;;;;;;;;;4994381;28;20050;-70
2023/06/25 00:27:40;;;;;;;6.22;4.20;;;;;;;;;;5011425;28;20072;-71
2023/06/25 00:30:07;;;;;;;6.45;4.40;;;;;;;;;;5028914;28;20025;-71
2023/06/25 00:32:32;;;;;;;7.95;4.50;;;;;;;;;;5029688;28;20098;-71
2023/06/25 00:34:58;;;;;;;6.65;4.05;;;;;;;;;;5029283;28;20033;-71
2023/06/25 00:37:23;;;;;;;7.07;4.38;;;;;;;;;;5007093;28;20566;-71
2023/06/25 00:39:48;;;;;;;9.17;4.50;;;;;;;;;;5028286;28;20044;-72
2023/06/25 00:42:14;;;;;;;10.13;4.67;;;;;;;;;;5028709;28;20037;-71
2023/06/25 00:44:40;;;;;;;8.85;4.50;;;;;;;;;;5010533;28;20299;-72
2023/06/25 00:47:07;;;;;;;7.78;4.60;;;;;;;;;;5028256;28;20096;-71
2023/06/25 00:49:33;;;;;;;8.07;4.55;;;;;;;;;;5010885;28;20033;-71
2023/06/25 00:52:00;;;;;;;7.15;4.28;;;;;;;;;;5028912;28;20039;-71
2023/06/25 00:54:25;;;;;;;7.30;4.32;;;;;;;;;;5026970;28;20139;-71
2023/06/25 00:56:50;;;;;;;5.82;4.03;;;;;;;;;;5011134;28;20033;-71
2023/06/25 00:59:16;;;;;;;5.63;4.23;;;;;;;;;;4993915;28;20045;-71
2023/06/25 01:01:44;;;;;;;5.88;3.80;;;;;;;;;;5010558;28;20115;-71
2023/06/25 01:04:14;;;;;;;7.13;3.90;;;;;;;;;;5026421;28;20060;-71
2023/06/25 01:06:41;;;;;;;8.18;4.40;;;;;;;;;;4993878;28;20152;-71
2023/06/25 01:09:08;;;;;;;7.05;3.85;;;;;;;;;;5009397;28;20064;-71
2023/06/25 01:11:33;;;;;;;6.97;4.30;;;;;;;;;;5028572;28;20080;-71
2023/06/25 01:13:58;;;;;;;6.33;3.53;;;;;;;;;;5027140;28;20057;-71
2023/06/25 01:16:24;;;;;;;9.18;3.95;;;;;;;;;;5027961;28;20037;-71
2023/06/25 01:18:50;;;;;;;7.90;3.90;;;;;;;;;;5027306;28;20051;-71
2023/06/25 01:21:17;;;;;;;6.28;3.95;;;;;;;;;;5010643;28;20049;-71
2023/06/25 01:23:42;;;;;;;7.03;3.80;;;;;;;;;;5026213;28;20108;-71
2023/06/25 01:26:07;;;;;;;6.13;3.50;;;;;;;;;;5026672;28;20694;-71
2023/06/25 01:28:32;;;;;;;5.93;4.00;;;;;;;;;;5012502;28;20057;-71
2023/06/25 01:30:58;;;;;;;5.45;3.88;;;;;;;;;;5009950;28;20878;-71
2023/06/25 01:33:25;;;;;;;7.32;3.78;;;;;;;;;;5027470;28;20026;-71
2023/06/25 01:35:51;;;;;;;7.18;3.40;;;;;;;;;;5026141;28;20048;-71
2023/06/25 01:38:16;;;;;;;7.35;3.80;;;;;;;;;;5025771;28;20045;-72
2023/06/25 01:40:42;;;;;;;5.87;3.93;;;;;;;;;;5009521;28;20423;-72
2023/06/25 01:43:07;;;;;;;7.73;3.50;;;;;;;;;;5025984;28;20372;-72
2023/06/25 01:45:32;;;;;;;5.17;3.40;;;;;;;;;;4992847;28;20307;-72
2023/06/25 01:47:57;;;;;;;7.00;3.70;;;;;;;;;;5009160;28;20029;-71
2023/06/25 01:50:23;;;;;;;6.70;3.55;;;;;;;;;;5026114;28;20134;-71
2023/06/25 01:52:48;;;;;;;9.40;3.50;;;;;;;;;;5008918;28;20512;-71
2023/06/25 01:55:13;;;;;;;8.60;4.07;;;;;;;;;;5027418;28;20483;-70
2023/06/25 01:57:38;;;;;;;8.50;3.57;;;;;;;;;;5009593;28;20276;-70
2023/06/25 02:00:04;;;;;;;7.37;3.60;;;;;;;;;;5027114;28;20304;-71
2023/06/25 02:02:29;;;;;;;11.00;3.95;;;;;;;;;;5026768;28;20430;-70
2023/06/25 02:04:55;;;;;;;6.50;3.13;;;;;;;;;;5026562;28;20033;-70
2023/06/25 02:07:20;;;;;;;8.38;3.80;;;;;;;;;;5027363;28;20025;-71
2023/06/25 02:09:45;;;;;;;6.60;3.67;;;;;;;;;;5008992;28;20064;-70
2023/06/25 02:12:11;;;;;;;7.00;3.63;;;;;;;;;;5026949;28;20034;-72
2023/06/25 02:14:36;;;;;;;6.05;3.55;;;;;;;;;;5027310;28;20044;-70
2023/06/25 02:17:01;;;;;;;9.73;3.93;;;;;;;;;;5027675;28;20125;-70
2023/06/25 02:19:26;;;;;;;6.50;4.00;;;;;;;;;;5009758;28;20512;-71
2023/06/25 02:21:51;;;;;;;8.30;3.70;;;;;;;;;;5027371;28;20037;-71
2023/06/25 02:24:17;;;;;;;7.63;4.03;;;;;;;;;;5027273;28;20543;-70
2023/06/25 02:26:42;;;;;;;8.37;4.17;;;;;;;;;;5027946;28;20535;-70
2023/06/25 02:29:07;;;;;;;8.25;4.10;;;;;;;;;;5008275;28;20492;-71
2023/06/25 02:31:32;;;;;;;9.07;4.73;;;;;;;;;;5027036;28;20041;-69
2023/06/25 02:33:57;;;;;;;6.53;4.57;;;;;;;;;;5027763;28;20040;-71
2023/06/25 02:36:23;;;;;;;9.40;4.80;;;;;;;;;;5029415;28;20561;-70
2023/06/25 02:38:48;;;;;;;7.10;4.60;;;;;;;;;;5028626;28;20463;-70
2023/06/25 02:41:13;;;;;;;9.47;4.20;;;;;;;;;;5028509;28;20319;-70
2023/06/25 02:43:38;;;;;;;8.32;4.80;;;;;;;;;;5010244;28;20057;-70
2023/06/25 02:46:04;;;;;;;8.27;4.47;;;;;;;;;;5009683;28;20273;-71
2023/06/25 02:48:29;;;;;;;7.07;4.77;;;;;;;;;;5008977;28;20037;-70
2023/06/25 02:50:54;;;;;;;11.45;4.90;;;;;;;;;;5026367;28;20505;-71
2023/06/25 02:53:19;;;;;;;9.87;4.90;;;;;;;;;;5026467;28;20075;-71
2023/06/25 02:55:45;;;;;;;11.00;5.53;;;;;;;;;;5027056;28;20809;-72
2023/06/25 02:58:10;;;;;;;8.40;4.77;;;;;;;;;;5008492;28;20550;-71
2023/06/25 03:00:35;;;;;;;9.43;4.97;;;;;;;;;;5026312;28;20045;-71
2023/06/25 03:03:00;;;;;;;11.67;5.07;;;;;;;;;;5026398;28;20387;-71
2023/06/25 03:05:26;;;;;;;8.30;5.23;;;;;;;;;;5026754;28;20049;-70
2023/06/25 03:07:55;;;;;;;7.60;5.10;;;;;;;;;;5008915;28;20037;-71
2023/06/25 03:10:22;;;;;;;8.87;5.03;;;;;;;;;;5007217;28;20325;-70
2023/06/25 03:12:47;;;;;;;11.15;4.85;;;;;;;;;;4991990;28;20277;-70
2023/06/25 03:15:13;;;;;;;9.50;4.97;;;;;;;;;;5026675;28;20698;-71
2023/06/25 03:17:38;;;;;;;10.25;4.85;;;;;;;;;;5026850;28;20260;-71
2023/06/25 03:20:03;;;;;;;10.20;5.57;;;;;;;;;;5008471;28;20072;-71
2023/06/25 03:22:29;;;;;;;11.35;5.20;;;;;;;;;;5025478;28;20500;-72
2023/06/25 03:24:54;;;;;;;8.57;5.03;;;;;;;;;;5026319;28;20588;-71
2023/06/25 03:27:19;;;;;;;10.73;5.60;;;;;;;;;;5026349;28;20487;-70
2023/06/25 03:29:44;;;;;;;10.17;5.60;;;;;;;;;;5026047;28;20014;-71
2023/06/25 03:32:09;;;;;;;8.97;5.17;;;;;;;;;;5025826;28;20455;-70
2023/06/25 03:34:35;;;;;;;15.47;5.90;;;;;;;;;;5008562;28;20037;-70
2023/06/25 03:37:00;;;;;;;10.03;5.50;;;;;;;;;;5025408;28;20264;-71
2023/06/25 03:39:25;;;;;;;9.32;5.57;;;;;;;;;;5025977;28;20295;-71
2023/06/25 03:41:50;;;;;;;10.77;5.77;;;;;;;;;;5025670;28;20043;-71
2023/06/25 03:44:16;;;;;;;10.50;5.70;;;;;;;;;;5005834;28;20264;-71
2023/06/25 03:46:41;;;;;;;9.57;5.67;;;;;;;;;;5008615;28;20049;-71
2023/06/25 03:49:06;;;;;;;9.67;6.00;;;;;;;;;;5008498;28;20060;-70
2023/06/25 03:51:31;;;;;;;9.77;5.70;;;;;;;;;;5009420;28;20260;-69
2023/06/25 03:53:57;;;;;;;10.77;6.33;;;;;;;;;;5028758;28;20014;-70
2023/06/25 03:56:22;;;;;;;9.70;6.40;;;;;;;;;;5012031;28;20024;-70
2023/06/25 03:58:47;;;;;;;10.37;6.47;;;;;;;;;;5029181;28;20089;-70
2023/06/25 04:01:12;;;;;;;9.10;5.53;;;;;;;;;;5028903;28;20132;-70
2023/06/25 04:03:37;;;;;;;10.37;6.57;;;;;;;;;;5028434;28;20272;-70
2023/06/25 04:06:03;;;;;;;9.93;5.97;;;;;;;;;;5010521;28;20049;-70
2023/06/25 04:08:28;;;;;;;10.77;6.30;;;;;;;;;;5027166;28;20280;-70
2023/06/25 04:10:53;;;;;;;12.98;6.30;;;;;;;;;;5029443;28;20120;-69
2023/06/25 04:13:18;;;;;;;10.27;5.88;;;;;;;;;;5011972;28;20104;-71
2023/06/25 04:15:44;;;;;;;9.77;5.80;;;;;;;;;;5010062;28;20037;-71
2023/06/25 04:18:09;;;;;;;12.57;6.10;;;;;;;;;;5011620;28;20017;-76
2023/06/25 04:20:34;;;;;;;9.23;5.83;;;;;;;;;;4987775;28;20345;-70
2023/06/25 04:23:00;;;;;;;9.70;6.20;;;;;;;;;;5005761;28;20269;-72
2023/06/25 04:25:25;;;;;;;10.52;6.22;;;;;;;;;;5004715;28;20029;-73
2023/06/25 04:27:50;;;;;;;10.88;6.22;;;;;;;;;;5021687;28;20191;-72
2023/06/25 04:30:15;;;;;;;10.93;6.03;;;;;;;;;;4989691;28;20033;-72
2023/06/25 04:32:40;;;;;;;10.10;6.28;;;;;;;;;;4998241;28;20284;-73
2023/06/25 04:35:06;;;;;;;9.70;6.23;;;;;;;;;;5003945;28;20034;-73
2023/06/25 04:37:31;;;;;;;9.82;5.75;;;;;;;;;;5017213;28;20863;-69
2023/06/25 04:39:56;;;;;;;9.73;5.80;;;;;;;;;;5017458;28;20515;-72
2023/06/25 04:42:22;;;;;;;10.33;6.03;;;;;;;;;;4997192;28;20441;-72
2023/06/25 04:44:47;;;;;;;9.77;5.80;;;;;;;;;;5016046;28;20512;-72
2023/06/25 04:47:12;;;;;;;12.40;6.40;;;;;;;;;;4999068;28;20846;-72
2023/06/25 04:49:37;;;;;;;8.98;5.57;;;;;;;;;;5031654;28;20280;-73
2023/06/25 04:52:03;;;;;;;11.10;6.33;;;;;;;;;;5029623;28;20018;-69
2023/06/25 04:54:28;;;;;;;8.77;5.35;;;;;;;;;;5016289;28;20082;-69
2023/06/25 04:56:53;;;;;;;9.40;6.00;;;;;;;;;;5015884;28;20014;-69
2023/06/25 04:59:19;;;;;;;9.80;5.37;;;;;;;;;;4997645;28;20084;-69
2023/06/25 05:01:44;;;;;;;10.07;6.07;;;;;;;;;;5016080;28;20050;-69
2023/06/25 05:04:09;;;;;;;9.50;5.53;;;;;;;;;;5015305;28;20413;-70
2023/06/25 05:06:34;;;;;;;8.67;5.40;;;;;;;;;;5015304;28;20603;-69
2023/06/25 05:09:00;;;;;;;9.33;5.53;;;;;;;;;;5014948;28;20403;-71
2023/06/25 05:11:25;;;;;;;11.30;6.00;;;;;;;;;;5015031;28;20280;-71
2023/06/25 05:13:50;;;;;;;8.73;5.38;;;;;;;;;;4998440;28;20276;-71
2023/06/25 05:16:15;;;;;;;10.05;5.25;;;;;;;;;;5015754;28;20025;-71
2023/06/25 05:18:41;;;;;;;10.77;5.70;;;;;;;;;;5014160;28;20192;-84
2023/06/25 05:21:06;;;;;;;10.85;5.05;;;;;;;;;;5000151;28;20300;-72
2023/06/25 05:23:38;;;;;;;9.03;5.10;;;;;;;;;;5023187;28;20049;-72
2023/06/25 05:26:03;;;;;;;9.25;4.75;;;;;;;;;;4996389;28;20042;-72
2023/06/25 05:28:29;;;;;;;9.30;5.23;;;;;;;;;;5013846;28;20218;-72
2023/06/25 05:30:54;;;;;;;7.83;4.63;;;;;;;;;;5032508;28;20292;-72
2023/06/25 05:33:19;;;;;;;10.15;5.40;;;;;;;;;;5013948;28;20045;-72
2023/06/25 05:35:44;;;;;;;9.27;5.23;;;;;;;;;;4995827;28;20037;-73
2023/06/25 05:38:09;;;;;;;8.37;5.43;;;;;;;;;;5001998;28;20033;-73
2023/06/25 05:40:35;;;;;;;8.70;5.37;;;;;;;;;;4997427;28;20068;-72
2023/06/25 05:43:00;;;;;;;10.23;4.70;;;;;;;;;;5029043;28;20078;-73
2023/06/25 05:45:25;;;;;;;8.55;5.32;;;;;;;;;;5003923;28;20056;-71
2023/06/25 05:47:51;;;;;;;8.77;5.40;;;;;;;;;;5000518;28;20038;-71
2023/06/25 05:50:16;;;;;;;9.13;5.22;;;;;;;;;;4999176;28;20037;-73
2023/06/25 05:52:41;;;;;;;8.37;5.43;;;;;;;;;;4998485;28;20125;-71
2023/06/25 05:55:09;;;;;;;8.40;5.32;;;;;;;;;;5029568;28;20582;-72
2023/06/25 05:57:35;;;;;;;9.55;5.45;;;;;;;;;;4996620;28;20018;-72
2023/06/25 06:00:00;;;;;;;8.35;5.20;;;;;;;;;;5013559;28;20057;-72
2023/06/25 06:02:26;;;;;;;9.67;5.27;;;;;;;;;;5028476;28;20490;-72
2023/06/25 06:04:51;;;;;;;9.90;5.63;;;;;;;;;;5015788;28;20292;-72
2023/06/25 06:07:16;;;;;;;8.55;5.20;;;;;;;;;;5001644;28;20053;-72
2023/06/25 06:09:45;;;;;;;8.37;5.57;;;;;;;;;;4998113;28;20033;-72
2023/06/25 06:12:10;;;;;;;9.45;5.85;;;;;;;;;;4997020;28;20365;-71
2023/06/25 06:14:37;;;;;;;8.23;5.25;;;;;;;;;;5016364;28;20037;-72
2023/06/25 06:17:03;;;;;;;9.10;4.85;;;;;;;;;;5013718;28;20152;-72
2023/06/25 06:19:28;;;;;;;9.32;5.45;;;;;;;;;;4996401;28;20700;-72
2023/06/25 06:21:53;;;;;;;9.73;5.00;;;;;;;;;;5014937;28;20048;-72
2023/06/25 06:24:18;;;;;;;9.07;5.00;;;;;;;;;;4983506;28;20480;-72
2023/06/25 06:26:44;;;;;;;8.40;5.13;;;;;;;;;;5043904;28;20049;-72
2023/06/25 06:29:09;;;;;;;9.37;5.00;;;;;;;;;;5011922;28;20037;-72
2023/06/25 06:31:34;;;;;;;7.70;4.93;;;;;;;;;;5007275;28;20492;-72
2023/06/25 06:33:59;;;;;;;8.40;4.80;;;;;;;;;;5020948;28;20292;-71
2023/06/25 06:36:25;;;;;;;7.03;4.83;;;;;;;;;;5025083;28;20288;-71
2023/06/25 06:38:50;;;;;;;7.53;4.70;;;;;;;;;;5058620;28;20276;-72
2023/06/25 06:41:15;;;;;;;8.43;4.22;;;;;;;;;;5027043;28;20280;-73
2023/06/25 06:43:40;;;;;;;7.70;4.53;;;;;;;;;;5026952;28;20037;-72
2023/06/25 06:46:06;;;;;;;6.83;4.40;;;;;;;;;;5027440;28;20676;-72
2023/06/25 06:48:31;;;;;;;5.50;4.13;;;;;;;;;;5009056;28;20678;-72
2023/06/25 06:50:56;;;;;;;6.67;3.90;;;;;;;;;;5026485;28;20283;-72
2023/06/25 06:53:21;;;;;;;8.67;4.53;;;;;;;;;;5026725;28;20033;-72
2023/06/25 06:55:47;;;;;;;5.97;4.23;;;;;;;;;;5024614;28;20037;-72
2023/06/25 06:58:12;;;;;;;6.63;4.20;;;;;;;;;;5025660;28;20303;-72
2023/06/25 07:00:37;;;;;;;5.77;3.90;;;;;;;;;;5025368;28;20850;-73
2023/06/25 07:03:02;;;;;;;5.80;3.97;;;;;;;;;;5008854;28;20533;-72
2023/06/25 07:05:27;;;;;;;6.33;3.83;;;;;;;;;;5008794;28;20049;-72
2023/06/25 07:07:53;;;;;;;5.50;3.72;;;;;;;;;;5009155;28;20088;-73
2023/06/25 07:10:18;;;;;;;6.27;4.00;;;;;;;;;;5026822;28;20046;-72
2023/06/25 07:12:43;;;;;;;6.73;3.93;;;;;;;;;;5026488;28;20304;-72
2023/06/25 07:15:08;;;;;;;6.90;4.17;;;;;;;;;;5025954;28;20087;-73
2023/06/25 07:17:34;;;;;;;5.90;4.03;;;;;;;;;;5025962;28;20033;-72
2023/06/25 07:19:59;;;;;;;5.80;3.70;;;;;;;;;;5026669;28;20037;-72
2023/06/25 07:22:24;;;;;;;7.43;4.63;;;;;;;;;;5008698;28;20033;-72
2023/06/25 07:24:49;;;;;;;5.83;3.90;;;;;;;;;;5024673;28;20295;-73
2023/06/25 07:27:15;;;;;;;5.03;3.67;;;;;;;;;;5010847;28;20694;-72
2023/06/25 07:29:40;;;;;;;6.20;4.40;;;;;;;;;;5011984;28;20318;-72
2023/06/25 07:32:06;;;;;;;7.57;4.53;;;;;;;;;;5029544;28;20820;-71
2023/06/25 07:34:31;;;;;;;6.22;4.00;;;;;;;;;;5012327;28;20292;-71
2023/06/25 07:36:56;;;;;;;8.47;4.70;;;;;;;;;;5030630;28;20045;-70
2023/06/25 07:39:26;;;;;;;6.00;3.80;;;;;;;;;;5011487;28;20033;-71
2023/06/25 07:41:52;;;;;;;7.13;4.47;;;;;;;;;;5012006;28;20292;-71
2023/06/25 07:44:17;;;;;;;6.38;4.30;;;;;;;;;;5026586;28;20061;-71
2023/06/25 07:46:42;;;;;;;7.72;4.72;;;;;;;;;;4998240;28;20061;-71
2023/06/25 07:49:07;;;;;;;7.63;4.87;;;;;;;;;;5014421;28;20482;-70
2023/06/25 07:51:33;;;;;;;7.27;5.50;;;;;;;;;;4996942;28;20497;-70
2023/06/25 07:53:58;;;;;;;7.93;4.80;;;;;;;;;;5028468;28;20053;-71
2023/06/25 07:56:23;;;;;;;7.00;4.90;;;;;;;;;;5031458;28;20284;-72
2023/06/25 07:58:48;;;;;;;8.80;4.57;;;;;;;;;;5032652;28;20037;-72
2023/06/25 08:01:13;;;;;;;7.67;4.77;;;;;;;;;;5014395;28;20045;-73
2023/06/25 08:03:39;;;;;;;7.60;4.27;;;;;;;;;;4991670;28;20025;-73
2023/06/25 08:06:04;;;;;;;6.97;4.47;;;;;;;;;;5012789;28;20121;-72
2023/06/25 08:08:29;;;;;;;6.67;4.40;;;;;;;;;;5012398;28;20413;-73
2023/06/25 08:10:54;;;;;;;8.23;4.60;;;;;;;;;;5029890;28;20280;-73
2023/06/25 08:13:20;;;;;;;6.70;4.47;;;;;;;;;;5030247;28;20086;-73
2023/06/25 08:15:45;;;;;;;7.00;4.28;;;;;;;;;;5029819;28;20037;-73
2023/06/25 08:18:11;;;;;;;8.77;4.57;;;;;;;;;;5028413;28;20038;-72
2023/06/25 08:20:36;;;;;;;6.07;4.37;;;;;;;;;;5029491;28;20171;-72
2023/06/25 08:23:01;;;;;;;9.30;4.87;;;;;;;;;;5011597;28;20821;-73
2023/06/25 08:25:26;;;;;;;7.13;4.27;;;;;;;;;;5011772;28;20288;-73
2023/06/25 08:27:52;;;;;;;7.57;4.80;;;;;;;;;;4994897;28;20040;-73
2023/06/25 08:30:17;;;;;;;6.95;4.40;;;;;;;;;;5027528;28;20120;-72
2023/06/25 08:32:42;;;;;;;5.85;4.25;;;;;;;;;;5029170;28;20030;-72
2023/06/25 08:35:08;;;;;;;5.93;3.87;;;;;;;;;;5046942;28;20598;-72
2023/06/25 08:37:33;;;;;;;6.65;4.38;;;;;;;;;;5044409;28;20288;-73
2023/06/25 08:39:58;;;;;;;7.18;3.97;;;;;;;;;;5029975;28;20068;-74
2023/06/25 08:42:24;;;;;;;5.97;4.03;;;;;;;;;;5030679;28;20524;-71
2023/06/25 08:44:50;;;;;;;5.85;3.85;;;;;;;;;;5019541;28;20299;-71
2023/06/25 08:47:16;;;;;;;8.02;4.38;;;;;;;;;;5020430;28;20033;-72
2023/06/25 08:49:43;;;;;;;6.25;4.10;;;;;;;;;;5019879;28;20052;-71
2023/06/25 08:52:08;;;;;;;5.93;3.90;;;;;;;;;;5013900;28;20117;-71
2023/06/25 08:54:34;;;;;;;11.20;3.90;;;;;;;;;;5013799;28;20037;-72
2023/06/25 08:56:59;;;;;;;6.07;3.77;;;;;;;;;;5031767;28;20041;-72
2023/06/25 08:59:24;;;;;;;6.60;3.30;;;;;;;;;;5034005;28;20040;-72
2023/06/25 09:01:49;;;;;;;4.70;3.30;;;;;;;;;;5033134;28;20376;-73
2023/06/25 09:04:15;;;;;;;4.60;3.40;;;;;;;;;;5014017;28;20033;-71
2023/06/25 09:06:40;;;;;;;5.20;3.50;;;;;;;;;;5013711;28;20307;-72
2023/06/25 09:09:06;;;;;;;5.23;3.30;;;;;;;;;;4996365;28;20041;-71
2023/06/25 09:11:31;;;;;;;5.22;3.00;;;;;;;;;;5031374;28;20327;-72
2023/06/25 09:13:57;;;;;;;4.63;2.83;;;;;;;;;;5013903;28;20037;-72
2023/06/25 09:16:22;;;;;;;6.20;3.08;;;;;;;;;;5031393;28;20092;-72
2023/06/25 09:18:47;;;;;;;4.60;3.20;;;;;;;;;;5031965;28;20041;-72
2023/06/25 09:21:13;;;;;;;3.67;2.67;;;;;;;;;;5015551;28;20303;-72
2023/06/25 09:23:38;;;;;;;4.17;3.20;;;;;;;;;;5017719;28;20038;-72
2023/06/25 09:26:04;;;;;;;4.82;2.72;;;;;;;;;;5032204;28;20296;-72
2023/06/25 09:28:30;;;;;;;4.25;3.15;;;;;;;;;;5014931;28;20102;-72
2023/06/25 09:30:56;;;;;;;5.13;3.13;;;;;;;;;;5033541;28;20088;-72
2023/06/25 09:33:28;;;;;;;4.75;2.80;;;;;;;;;;5039671;28;20292;-72
2023/06/25 09:35:58;;;;;;;4.15;2.90;;;;;;;;;;5033604;28;20034;-72
2023/06/25 09:38:24;;;;;;;5.45;2.92;;;;;;;;;;5037710;28;20042;-72
2023/06/25 09:40:49;;;;;;;3.92;2.72;;;;;;;;;;5035522;28;20091;-72
2023/06/25 09:43:14;;;;;;;4.32;2.88;;;;;;;;;;5005040;28;20033;-72
2023/06/25 09:45:39;;;;;;;3.83;2.60;;;;;;;;;;5021741;28;20033;-72
2023/06/25 09:48:05;;;;;;;4.00;2.60;;;;;;;;;;5021608;28;20291;-72
2023/06/25 09:50:35;;;;;;;3.47;2.97;;;;;;;;;;5024851;28;20295;-72
2023/06/25 09:53:02;;;;;;;3.92;2.80;;;;;;;;;;5009407;28;20104;-72
2023/06/25 09:55:28;;;;;;;4.20;2.88;;;;;;;;;;5010175;28;20038;-72
2023/06/25 09:57:53;;;;;;;5.88;3.30;;;;;;;;;;5044332;28;20064;-72
2023/06/25 10:00:19;;;;;;;4.22;2.55;;;;;;;;;;5040808;28;20045;-72
2023/06/25 10:02:44;;;;;;;4.78;2.78;;;;;;;;;;5019711;28;20056;-72
2023/06/25 10:05:10;;;;;;;3.78;2.72;;;;;;;;;;5039223;28;20060;-72
2023/06/25 10:07:35;;;;;;;3.70;2.88;;;;;;;;;;5019897;28;20610;-72
2023/06/25 10:10:00;;;;;;;4.50;3.10;;;;;;;;;;5037130;28;20053;-72
2023/06/25 10:12:25;;;;;;;4.30;3.20;;;;;;;;;;5038704;28;20292;-72
2023/06/25 10:14:52;;;;;;;5.03;3.10;;;;;;;;;;5002341;28;20292;-72
2023/06/25 10:17:19;;;;;;;4.30;3.28;;;;;;;;;;5034166;28;20303;-73
2023/06/25 10:19:57;;;;;;;4.43;3.00;;;;;;;;;;5009637;28;20054;-72
2023/06/25 10:22:23;;;;;;;4.05;3.00;;;;;;;;;;4993005;28;20380;-71
2023/06/25 10:24:49;;;;;;;4.43;2.95;;;;;;;;;;5010644;28;20076;-72
2023/06/25 10:27:26;;;;;;;4.72;2.65;;;;;;;;;;5023939;28;20126;-71
2023/06/25 10:29:51;;;;;;;3.90;2.85;;;;;;;;;;5027104;28;20037;-72
2023/06/25 10:32:23;;;;;;;4.03;2.95;;;;;;;;;;5027504;28;20041;-72
2023/06/25 10:35:01;;;;;;;4.28;2.80;;;;;;;;;;5010343;28;20045;-72
2023/06/25 10:37:30;;;;;;;4.38;2.88;;;;;;;;;;5009269;28;20044;-73
2023/06/25 10:40:01;;;;;;;5.15;3.25;;;;;;;;;;5009409;28;20042;-72
2023/06/25 10:42:28;;;;;;;4.53;2.70;;;;;;;;;;5027013;28;20029;-73
2023/06/25 10:44:53;;;;;;;4.47;2.72;;;;;;;;;;5027108;28;20093;-72
2023/06/25 10:47:19;;;;;;;4.13;2.73;;;;;;;;;;5027002;28;20556;-72
2023/06/25 10:49:44;;;;;;;5.18;2.88;;;;;;;;;;5027696;28;20531;-72
2023/06/25 10:52:09;;;;;;;4.67;2.60;;;;;;;;;;5027406;28;20017;-72
2023/06/25 10:54:34;;;;;;;4.50;2.90;;;;;;;;;;5042259;28;20037;-73
2023/06/25 10:57:07;;;;;;;4.45;3.05;;;;;;;;;;4993089;28;20112;-72
2023/06/25 10:59:32;;;;;;;5.22;3.10;;;;;;;;;;4994199;28;20052;-72
2023/06/25 11:02:07;;;;;;;4.30;2.80;;;;;;;;;;5029732;28;20817;-72
2023/06/25 11:04:32;;;;;;;3.97;2.58;;;;;;;;;;5030760;28;20322;-72
2023/06/25 11:06:58;;;;;;;4.37;3.03;;;;;;;;;;5013490;28;20037;-73
2023/06/25 11:09:23;;;;;;;4.70;3.03;;;;;;;;;;5030821;28;20319;-72
2023/06/25 11:11:51;;;;;;;4.73;3.10;;;;;;;;;;4996757;28;20037;-73
2023/06/25 11:14:16;;;;;;;4.10;2.80;;;;;;;;;;5042862;28;20076;-73
2023/06/25 11:16:47;;;;;;;4.20;3.40;;;;;;;;;;5030991;28;20498;-72
2023/06/25 11:19:13;;;;;;;4.30;3.10;;;;;;;;;;5011965;28;20490;-72
2023/06/25 11:21:38;;;;;;;4.03;3.00;;;;;;;;;;5030446;28;20120;-72
2023/06/25 11:24:09;;;;;;;3.90;2.97;;;;;;;;;;5012697;28;20296;-72
2023/06/25 11:26:40;;;;;;;4.32;3.10;;;;;;;;;;5030842;28;20503;-72
2023/06/25 11:29:06;;;;;;;5.60;3.17;;;;;;;;;;5012056;28;20039;-72
2023/06/25 11:31:40;;;;;;;4.68;3.40;;;;;;;;;;5028111;28;20037;-72
2023/06/25 11:34:07;;;;;;;3.22;2.53;;;;;;;;;;5013043;28;20052;-73
2023/06/25 11:36:32;;;;;;;4.72;2.70;;;;;;;;;;5032404;28;20030;-73
2023/06/25 11:38:58;;;;;;;4.00;2.63;;;;;;;;;;5030513;28;20034;-72
2023/06/25 11:41:27;;;;;;;4.90;2.65;;;;;;;;;;5045538;28;20468;-74
2023/06/25 11:43:52;;;;;;;4.85;2.78;;;;;;;;;;5030219;28;20048;-73
2023/06/25 11:46:17;;;;;;;3.90;2.57;;;;;;;;;;5029719;28;20760;-73
2023/06/25 11:48:49;;;;;;;5.00;2.83;;;;;;;;;;5011798;28;20818;-72
2023/06/25 11:51:15;;;;;;;4.25;2.83;;;;;;;;;;4995892;28;20117;-73
2023/06/25 11:53:40;;;;;;;3.60;2.60;;;;;;;;;;5013217;28;20033;-72
2023/06/25 11:56:05;;;;;;;4.70;2.73;;;;;;;;;;5014597;28;21221;-73
2023/06/25 11:58:30;;;;;;;4.20;2.70;;;;;;;;;;5030832;28;20087;-73
2023/06/25 12:00:55;;;;;;;3.67;2.50;;;;;;;;;;4996854;28;20155;-73
2023/06/25 12:03:21;;;;;;;4.15;2.85;;;;;;;;;;5030565;28;20299;-73
2023/06/25 12:05:46;;;;;;;3.57;2.50;;;;;;;;;;5029112;28;20042;-73
2023/06/25 12:08:11;;;;;;;3.57;2.60;;;;;;;;;;5029200;28;20049;-73
2023/06/25 12:10:36;;;;;;;3.10;2.40;;;;;;;;;;5012202;28;20030;-72
2023/06/25 12:13:02;;;;;;;4.70;2.60;;;;;;;;;;5028859;28;20030;-73
2023/06/25 12:15:27;;;;;;;5.07;2.50;;;;;;;;;;5030176;28;21056;-73
2023/06/25 12:17:52;;;;;;;3.37;2.30;;;;;;;;;;5011061;28;20491;-72
2023/06/25 12:20:17;;;;;;;5.90;3.00;;;;;;;;;;5029030;28;20374;-73
2023/06/25 12:22:43;;;;;;;4.07;2.60;;;;;;;;;;5029250;28;20272;-73
2023/06/25 12:25:08;;;;;;;4.80;2.87;;;;;;;;;;5029842;28;20426;-73
2023/06/25 12:27:33;;;;;;;4.43;2.38;;;;;;;;;;5011062;28;20283;-72
2023/06/25 12:29:58;;;;;;;4.07;2.38;;;;;;;;;;5011628;28;20048;-73
2023/06/25 12:32:24;;;;;;;5.13;2.57;;;;;;;;;;5029211;28;20057;-73
2023/06/25 12:34:49;;;;;;;4.75;2.53;;;;;;;;;;5011256;28;20034;-72
2023/06/25 12:37:16;;;;;;;4.57;2.80;;;;;;;;;;5010902;28;20045;-73
2023/06/25 12:39:41;;;;;;;7.22;2.70;;;;;;;;;;5029281;28;20847;-73
2023/06/25 12:42:06;;;;;;;5.27;2.70;;;;;;;;;;5011330;28;20136;-73
2023/06/25 12:44:32;;;;;;;3.03;2.15;;;;;;;;;;5011025;28;20504;-73
2023/06/25 12:46:57;;;;;;;3.63;2.40;;;;;;;;;;5029786;28;20142;-72
2023/06/25 12:49:22;;;;;;;2.77;2.20;;;;;;;;;;5029029;28;20033;-73
2023/06/25 12:51:47;;;;;;;4.23;2.47;;;;;;;;;;5028873;28;20798;-72
2023/06/25 12:54:13;;;;;;;3.47;1.80;;;;;;;;;;5043866;28;20492;-73
2023/06/25 12:56:38;;;;;;;4.13;2.10;;;;;;;;;;5029971;28;20364;-73
2023/06/25 12:59:03;;;;;;;4.13;2.33;;;;;;;;;;5028438;28;20285;-71
2023/06/25 13:01:28;;;;;;;3.97;2.40;;;;;;;;;;5009733;28;20386;-73
2023/06/25 13:03:54;;;;;;;4.93;2.20;;;;;;;;;;5027121;28;20288;-72
2023/06/25 13:06:20;;;;;;;4.17;2.00;;;;;;;;;;5028988;28;20063;-73
2023/06/25 13:08:45;;;;;;;3.15;2.20;;;;;;;;;;5010746;28;20033;-73
2023/06/25 13:11:10;;;;;;;4.47;2.30;;;;;;;;;;5028541;28;20122;-73
2023/06/25 13:13:36;;;;;;;5.53;2.10;;;;;;;;;;4994302;28;20041;-74
2023/06/25 13:16:01;;;;;;;4.67;2.10;;;;;;;;;;5029009;28;20300;-71
2023/06/25 13:18:26;;;;;;;7.33;1.93;;;;;;;;;;5005890;28;20041;-69
2023/06/25 13:20:51;;;;;;;8.32;2.20;;;;;;;;;;5027722;28;20308;-73
2023/06/25 13:23:17;;;;;;;7.30;2.10;;;;;;;;;;5028012;28;20136;-71
2023/06/25 13:25:42;;;;;;;4.53;1.70;;;;;;;;;;5029187;28;20037;-73
2023/06/25 13:28:07;;;;;;;4.80;2.00;;;;;;;;;;5009885;28;20473;-86
2023/06/25 13:30:32;;;;;;;5.95;2.05;;;;;;;;;;4989284;28;20030;-82
2023/06/25 13:33:01;;;;;;;4.80;1.65;;;;;;;;;;5001860;28;20063;-92
2023/06/25 13:35:26;;;;;;;4.95;1.67;;;;;;;;;;4982311;28;20539;-78
2023/06/25 13:37:51;;;;;;;4.85;1.48;;;;;;;;;;5017316;28;20238;-76
2023/06/25 13:40:16;;;;;;;3.80;1.60;;;;;;;;;;4996485;28;20052;-77
2023/06/25 13:42:43;;;;;;;4.73;1.73;;;;;;;;;;4986211;28;20395;-78
2023/06/25 13:45:08;;;;;;;5.20;2.20;;;;;;;;;;4984201;28;20971;-73
2023/06/25 13:47:33;;;;;;;4.57;2.08;;;;;;;;;;5030232;28;20484;-75
2023/06/25 13:49:59;;;;;;;6.17;2.27;;;;;;;;;;4987592;28;20038;-76
2023/06/25 13:52:24;;;;;;;4.33;2.27;;;;;;;;;;4980640;28;20401;-72
2023/06/25 13:54:49;;;;;;;4.10;2.20;;;;;;;;;;4996494;28;20503;-70
2023/06/25 13:57:15;;;;;;;4.68;2.50;;;;;;;;;;5014710;28;20374;-72
2023/06/25 13:59:41;;;;;;;4.70;2.47;;;;;;;;;;4994692;28;20211;-70
2023/06/25 14:02:06;;;;;;;7.38;3.38;;;;;;;;;;4996297;28;20338;-74
2023/06/25 14:04:32;;;;;;;6.43;3.40;;;;;;;;;;5014655;28;20026;-71
2023/06/25 14:06:57;;;;;;;6.85;3.50;;;;;;;;;;5013541;28;20291;-71
2023/06/25 14:09:22;;;;;;;7.60;3.03;;;;;;;;;;5013480;28;20120;-73
2023/06/25 14:11:48;;;;;;;6.63;3.53;;;;;;;;;;5014781;28;20045;-70
2023/06/25 14:14:13;;;;;;;6.85;3.80;;;;;;;;;;5015592;28;20714;-70
2023/06/25 14:16:38;;;;;;;6.20;3.63;;;;;;;;;;5017047;28;20905;-75
2023/06/25 14:19:03;;;;;;;6.67;3.90;;;;;;;;;;4981657;28;20042;-71
2023/06/25 14:21:28;;;;;;;8.27;4.00;;;;;;;;;;5014679;28;20284;-71
2023/06/25 14:23:54;;;;;;;6.27;3.90;;;;;;;;;;4995330;28;20030;-70
2023/06/25 14:26:20;;;;;;;8.85;4.53;;;;;;;;;;5015811;28;20033;-68
2023/06/25 14:28:45;;;;;;;9.23;4.30;;;;;;;;;;4995956;28;20026;-68
2023/06/25 14:31:10;;;;;;;7.37;3.40;;;;;;;;;;5015766;28;20220;-68